sensor_id;sensor_type;location;lat;lon;timestamp;pressure;altitude;pressure_sealevel;temperature;humidity
11672;BME280;5892;43.412;24.612;2023-04-10T00:02:26;100304.66;;;9.50;100.00
11672;BME280;5892;43.412;24.612;2023-04-10T00:04:55;100305.44;;;9.37;100.00
11672;BME280;5892;43.412;24.612;2023-04-10T00:07:21;100279.28;;;9.17;100.00
11672;BME280;5892;43.412;24.612;2023-04-10T00:09:48;100324.28;;;9.39;100.00
11672;BME280;5892;43.412;24.612;2023-04-10T00:12:15;100276.59;;;9.31;100.00
11672;BME280;5892;43.412;24.612;2023-04-10T00:14:42;100191.97;;;8.66;100.00
11672;BME280;5892;43.412;24.612;2023-04-10T00:17:09;100295.91;;;9.34;100.00
11672;BME280;5892;43.412;24.612;2023-04-10T00:19:36;100285.81;;;9.35;100.00
11672;BME280;5892;43.412;24.612;2023-04-10T00:22:04;100287.44;;;9.36;100.00
11672;BME280;5892;43.412;24.612;2023-04-10T00:24:31;100245.47;;;9.13;100.00
11672;BME280;5892;43.412;24.612;2023-04-10T00:26:58;100282.78;;;9.37;100.00
11672;BME280;5892;43.412;24.612;2023-04-10T00:29:26;100283.56;;;9.37;100.00
11672;BME280;5892;43.412;24.612;2023-04-10T00:31:52;100255.50;;;9.18;100.00
11672;BME280;5892;43.412;24.612;2023-04-10T00:34:19;100283.16;;;9.30;100.00
11672;BME280;5892;43.412;24.612;2023-04-10T00:36:46;100280.63;;;9.33;100.00
11672;BME280;5892;43.412;24.612;2023-04-10T00:39:14;100275.44;;;9.18;100.00
11672;BME280;5892;43.412;24.612;2023-04-10T00:41:41;100221.53;;;8.78;100.00
11672;BME280;5892;43.412;24.612;2023-04-10T00:44:08;100273.00;;;9.17;100.00
11672;BME280;5892;43.412;24.612;2023-04-10T00:46:36;100191.34;;;8.69;100.00
11672;BME280;5892;43.412;24.612;2023-04-10T00:49:03;100264.28;;;9.01;100.00
11672;BME280;5892;43.412;24.612;2023-04-10T00:51:57;100287.28;;;9.00;100.00
11672;BME280;5892;43.412;24.612;2023-04-10T00:54:22;100271.47;;;8.97;100.00
11672;BME280;5892;43.412;24.612;2023-04-10T00:56:49;100194.16;;;8.50;100.00
11672;BME280;5892;43.412;24.612;2023-04-10T00:59:16;100218.44;;;8.52;100.00
11672;BME280;5892;43.412;24.612;2023-04-10T01:01:43;100272.88;;;8.62;100.00
11672;BME280;5892;43.412;24.612;2023-04-10T01:04:12;100272.44;;;8.55;100.00
11672;BME280;5892;43.412;24.612;2023-04-10T01:06:50;100270.75;;;8.59;100.00
11672;BME280;5892;43.412;24.612;2023-04-10T01:09:34;100235.66;;;8.34;100.00
11672;BME280;5892;43.412;24.612;2023-04-10T01:12:10;100266.91;;;8.60;100.00
11672;BME280;5892;43.412;24.612;2023-04-10T01:14:45;100263.69;;;8.58;100.00
11672;BME280;5892;43.412;24.612;2023-04-10T01:17:17;100235.06;;;8.37;100.00
11672;BME280;5892;43.412;24.612;2023-04-10T01:19:57;100209.38;;;8.19;100.00
11672;BME280;5892;43.412;24.612;2023-04-10T01:22:33;100244.69;;;8.48;100.00
11672;BME280;5892;43.412;24.612;2023-04-10T01:25:17;100233.38;;;8.41;100.00
11672;BME280;5892;43.412;24.612;2023-04-10T01:27:56;100267.34;;;8.67;100.00
11672;BME280;5892;43.412;24.612;2023-04-10T01:33:49;100166.03;;;7.99;100.00
11672;BME280;5892;43.412;24.612;2023-04-10T01:36:21;100256.50;;;8.62;100.00
11672;BME280;5892;43.412;24.612;2023-04-10T01:38:52;100260.78;;;8.68;100.00
11672;BME280;5892;43.412;24.612;2023-04-10T01:41:21;100259.22;;;8.62;100.00
11672;BME280;5892;43.412;24.612;2023-04-10T01:43:50;100212.84;;;8.25;100.00
11672;BME280;5892;43.412;24.612;2023-04-10T01:46:20;100111.22;;;7.63;100.00
11672;BME280;5892;43.412;24.612;2023-04-10T01:48:49;100247.44;;;8.48;100.00
11672;BME280;5892;43.412;24.612;2023-04-10T01:51:17;100255.41;;;8.44;100.00
11672;BME280;5892;43.412;24.612;2023-04-10T01:53:45;100129.63;;;7.52;100.00
11672;BME280;5892;43.412;24.612;2023-04-10T01:56:13;100257.31;;;8.44;100.00
11672;BME280;5892;43.412;24.612;2023-04-10T01:58:40;100261.69;;;8.45;100.00
11672;BME280;5892;43.412;24.612;2023-04-10T02:01:08;100227.00;;;8.27;100.00
11672;BME280;5892;43.412;24.612;2023-04-10T02:03:36;100257.94;;;8.41;100.00
11672;BME280;5892;43.412;24.612;2023-04-10T02:06:10;100250.75;;;8.45;100.00
11672;BME280;5892;43.412;24.612;2023-04-10T02:08:45;100195.88;;;7.90;100.00
11672;BME280;5892;43.412;24.612;2023-04-10T02:11:36;100264.53;;;8.54;100.00
11672;BME280;5892;43.412;24.612;2023-04-10T02:14:07;100263.69;;;8.58;100.00
11672;BME280;5892;43.412;24.612;2023-04-10T02:16:54;100260.22;;;8.53;100.00
11672;BME280;5892;43.412;24.612;2023-04-10T02:19:30;100185.94;;;7.99;100.00
11672;BME280;5892;43.412;24.612;2023-04-10T02:21:58;100258.88;;;8.50;100.00
11672;BME280;5892;43.412;24.612;2023-04-10T02:24:25;100098.47;;;7.40;100.00
11672;BME280;5892;43.412;24.612;2023-04-10T02:26:53;100257.25;;;8.49;100.00
11672;BME280;5892;43.412;24.612;2023-04-10T02:29:20;100262.13;;;8.52;100.00
11672;BME280;5892;43.412;24.612;2023-04-10T02:31:47;100251.06;;;8.43;100.00
11672;BME280;5892;43.412;24.612;2023-04-10T02:34:14;100250.06;;;8.53;100.00
11672;BME280;5892;43.412;24.612;2023-04-10T02:36:43;100224.94;;;8.37;100.00
11672;BME280;5892;43.412;24.612;2023-04-10T02:39:10;100160.41;;;7.90;100.00
11672;BME280;5892;43.412;24.612;2023-04-10T02:41:36;100259.47;;;8.47;100.00
11672;BME280;5892;43.412;24.612;2023-04-10T02:44:03;100176.25;;;8.07;100.00
11672;BME280;5892;43.412;24.612;2023-04-10T02:46:31;100261.59;;;8.50;100.00
11672;BME280;5892;43.412;24.612;2023-04-10T02:48:58;100244.88;;;8.38;100.00
11672;BME280;5892;43.412;24.612;2023-04-10T02:51:25;100250.56;;;8.41;100.00
11672;BME280;5892;43.412;24.612;2023-04-10T02:53:53;100247.94;;;8.50;100.00
11672;BME280;5892;43.412;24.612;2023-04-10T02:56:20;100247.50;;;8.24;100.00
11672;BME280;5892;43.412;24.612;2023-04-10T02:58:47;100229.69;;;8.32;100.00
11672;BME280;5892;43.412;24.612;2023-04-10T03:01:14;100239.13;;;8.39;100.00
11672;BME280;5892;43.412;24.612;2023-04-10T03:03:41;100224.22;;;8.32;100.00
11672;BME280;5892;43.412;24.612;2023-04-10T03:06:08;100244.00;;;8.42;100.00
11672;BME280;5892;43.412;24.612;2023-04-10T03:08:35;100213.91;;;8.10;100.00
11672;BME280;5892;43.412;24.612;2023-04-10T03:11:04;100139.38;;;7.58;100.00
11672;BME280;5892;43.412;24.612;2023-04-10T03:13:33;100251.22;;;8.52;100.00
11672;BME280;5892;43.412;24.612;2023-04-10T03:16:00;100248.56;;;8.47;100.00
11672;BME280;5892;43.412;24.612;2023-04-10T03:18:27;100247.31;;;8.39;100.00
11672;BME280;5892;43.412;24.612;2023-04-10T03:20:56;100287.81;;;8.51;100.00
11672;BME280;5892;43.412;24.612;2023-04-10T03:23:23;100252.88;;;8.48;100.00
11672;BME280;5892;43.412;24.612;2023-04-10T03:25:53;100195.00;;;8.14;100.00
11672;BME280;5892;43.412;24.612;2023-04-10T03:28:24;100222.94;;;8.24;100.00
11672;BME280;5892;43.412;24.612;2023-04-10T03:30:52;100157.47;;;7.87;100.00
11672;BME280;5892;43.412;24.612;2023-04-10T03:33:19;100261.91;;;8.48;100.00
11672;BME280;5892;43.412;24.612;2023-04-10T03:35:45;100256.16;;;8.50;100.00
11672;BME280;5892;43.412;24.612;2023-04-10T03:38:12;100261.91;;;8.48;100.00
11672;BME280;5892;43.412;24.612;2023-04-10T03:40:39;100162.13;;;7.68;100.00
11672;BME280;5892;43.412;24.612;2023-04-10T03:43:06;100251.13;;;8.20;100.00
11672;BME280;5892;43.412;24.612;2023-04-10T03:45:34;100281.84;;;8.30;100.00
11672;BME280;5892;43.412;24.612;2023-04-10T03:48:01;100276.94;;;8.27;100.00
11672;BME280;5892;43.412;24.612;2023-04-10T03:50:28;100277.69;;;8.33;100.00
11672;BME280;5892;43.412;24.612;2023-04-10T03:52:55;100268.47;;;8.29;100.00
11672;BME280;5892;43.412;24.612;2023-04-10T03:55:22;100283.81;;;8.43;100.00
11672;BME280;5892;43.412;24.612;2023-04-10T03:57:49;100285.75;;;8.43;100.00
11672;BME280;5892;43.412;24.612;2023-04-10T04:00:16;100219.09;;;8.06;100.00
11672;BME280;5892;43.412;24.612;2023-04-10T04:02:45;100277.38;;;8.53;100.00
11672;BME280;5892;43.412;24.612;2023-04-10T04:05:12;100221.84;;;8.06;100.00
11672;BME280;5892;43.412;24.612;2023-04-10T04:07:39;100265.59;;;8.39;100.00
11672;BME280;5892;43.412;24.612;2023-04-10T04:10:07;100286.09;;;8.55;100.00
11672;BME280;5892;43.412;24.612;2023-04-10T04:12:36;100171.66;;;7.89;100.00
11672;BME280;5892;43.412;24.612;2023-04-10T04:15:04;100274.88;;;8.57;100.00
11672;BME280;5892;43.412;24.612;2023-04-10T04:17:31;100207.38;;;8.25;100.00
11672;BME280;5892;43.412;24.612;2023-04-10T04:19:59;100290.03;;;8.81;100.00
11672;BME280;5892;43.412;24.612;2023-04-10T04:22:26;100287.75;;;8.88;100.00
11672;BME280;5892;43.412;24.612;2023-04-10T04:24:53;100266.66;;;8.75;100.00
11672;BME280;5892;43.412;24.612;2023-04-10T04:27:20;100289.56;;;8.93;100.00
11672;BME280;5892;43.412;24.612;2023-04-10T04:29:47;100297.88;;;9.02;100.00
11672;BME280;5892;43.412;24.612;2023-04-10T04:32:14;100298.25;;;8.95;100.00
11672;BME280;5892;43.412;24.612;2023-04-10T04:34:41;100292.75;;;9.00;100.00
11672;BME280;5892;43.412;24.612;2023-04-10T04:37:09;100215.38;;;8.54;100.00
11672;BME280;5892;43.412;24.612;2023-04-10T04:39:37;100292.84;;;9.09;100.00
11672;BME280;5892;43.412;24.612;2023-04-10T04:42:12;100300.16;;;9.13;100.00
11672;BME280;5892;43.412;24.612;2023-04-10T04:44:40;100292.03;;;9.22;100.00
11672;BME280;5892;43.412;24.612;2023-04-10T04:47:12;100289.03;;;9.23;100.00
11672;BME280;5892;43.412;24.612;2023-04-10T04:49:39;100292.56;;;9.24;100.00
11672;BME280;5892;43.412;24.612;2023-04-10T04:52:06;100209.00;;;8.90;100.00
11672;BME280;5892;43.412;24.612;2023-04-10T04:54:37;100269.78;;;9.28;100.00
11672;BME280;5892;43.412;24.612;2023-04-10T04:57:04;100303.81;;;9.63;100.00
11672;BME280;5892;43.412;24.612;2023-04-10T04:59:30;100298.38;;;9.77;100.00
11672;BME280;5892;43.412;24.612;2023-04-10T05:01:57;100304.44;;;9.74;100.00
11672;BME280;5892;43.412;24.612;2023-04-10T05:04:33;100278.72;;;9.61;100.00
11672;BME280;5892;43.412;24.612;2023-04-10T05:07:00;100311.91;;;10.23;100.00
11672;BME280;5892;43.412;24.612;2023-04-10T05:09:27;100256.56;;;9.85;100.00
11672;BME280;5892;43.412;24.612;2023-04-10T05:11:55;100311.56;;;10.38;100.00
11672;BME280;5892;43.412;24.612;2023-04-10T05:14:23;100314.22;;;10.66;100.00
11672;BME280;5892;43.412;24.612;2023-04-10T05:16:50;100320.38;;;10.71;100.00
11672;BME280;5892;43.412;24.612;2023-04-10T05:19:24;100229.56;;;10.19;100.00
11672;BME280;5892;43.412;24.612;2023-04-10T05:21:51;100320.63;;;10.83;100.00
11672;BME280;5892;43.412;24.612;2023-04-10T05:24:18;100326.13;;;10.83;100.00
11672;BME280;5892;43.412;24.612;2023-04-10T05:26:45;100321.69;;;10.96;100.00
11672;BME280;5892;43.412;24.612;2023-04-10T05:29:13;100324.75;;;11.25;100.00
11672;BME280;5892;43.412;24.612;2023-04-10T05:31:40;100229.75;;;10.68;100.00
11672;BME280;5892;43.412;24.612;2023-04-10T05:34:07;100297.81;;;11.27;100.00
11672;BME280;5892;43.412;24.612;2023-04-10T05:36:34;100333.38;;;11.41;100.00
11672;BME280;5892;43.412;24.612;2023-04-10T05:39:01;100322.47;;;11.50;100.00
11672;BME280;5892;43.412;24.612;2023-04-10T05:41:28;100327.31;;;11.53;100.00
11672;BME280;5892;43.412;24.612;2023-04-10T05:46:54;100224.75;;;10.70;100.00
11672;BME280;5892;43.412;24.612;2023-04-10T05:49:21;100328.13;;;11.53;100.00
11672;BME280;5892;43.412;24.612;2023-04-10T05:51:54;100337.56;;;11.69;100.00
11672;BME280;5892;43.412;24.612;2023-04-10T05:54:20;100284.59;;;11.29;100.00
11672;BME280;5892;43.412;24.612;2023-04-10T05:56:47;100306.84;;;11.67;100.00
11672;BME280;5892;43.412;24.612;2023-04-10T05:59:15;100322.00;;;11.87;100.00
11672;BME280;5892;43.412;24.612;2023-04-10T06:01:55;100327.88;;;12.20;100.00
11672;BME280;5892;43.412;24.612;2023-04-10T06:04:22;100327.09;;;12.28;100.00
11672;BME280;5892;43.412;24.612;2023-04-10T06:06:49;100327.25;;;12.31;100.00
11672;BME280;5892;43.412;24.612;2023-04-10T06:09:16;100325.16;;;12.54;100.00
11672;BME280;5892;43.412;24.612;2023-04-10T06:11:43;100328.41;;;12.82;100.00
11672;BME280;5892;43.412;24.612;2023-04-10T06:14:10;100287.66;;;12.58;100.00
11672;BME280;5892;43.412;24.612;2023-04-10T06:16:45;100318.47;;;13.33;100.00
11672;BME280;5892;43.412;24.612;2023-04-10T06:19:14;100321.31;;;13.53;100.00
11672;BME280;5892;43.412;24.612;2023-04-10T06:21:40;100324.31;;;13.69;99.95
11672;BME280;5892;43.412;24.612;2023-04-10T06:24:07;100318.16;;;14.02;99.36
11672;BME280;5892;43.412;24.612;2023-04-10T06:26:34;100315.34;;;14.10;98.57
11672;BME280;5892;43.412;24.612;2023-04-10T06:29:02;100305.50;;;14.00;97.37
11672;BME280;5892;43.412;24.612;2023-04-10T06:31:32;100262.09;;;13.97;96.33
11672;BME280;5892;43.412;24.612;2023-04-10T06:33:59;100318.47;;;14.50;95.16
11672;BME280;5892;43.412;24.612;2023-04-10T06:36:27;100251.31;;;14.34;93.74
11672;BME280;5892;43.412;24.612;2023-04-10T06:38:54;100249.56;;;14.50;87.79
11672;BME280;5892;43.412;24.612;2023-04-10T06:41:21;100318.78;;;15.11;84.29
11672;BME280;5892;43.412;24.612;2023-04-10T06:43:48;100324.28;;;15.11;84.00
11672;BME280;5892;43.412;24.612;2023-04-10T06:46:15;100327.06;;;15.23;81.92
11672;BME280;5892;43.412;24.612;2023-04-10T06:48:42;100331.50;;;15.03;82.32
11672;BME280;5892;43.412;24.612;2023-04-10T06:51:09;100332.00;;;14.84;83.07
11672;BME280;5892;43.412;24.612;2023-04-10T06:53:37;100328.25;;;14.68;84.61
11672;BME280;5892;43.412;24.612;2023-04-10T06:56:04;100335.41;;;14.81;84.09
11672;BME280;5892;43.412;24.612;2023-04-10T06:58:32;100315.16;;;14.65;81.87
11672;BME280;5892;43.412;24.612;2023-04-10T07:00:59;100326.44;;;15.05;75.46
11672;BME280;5892;43.412;24.612;2023-04-10T07:03:29;100328.69;;;15.24;73.90
11672;BME280;5892;43.412;24.612;2023-04-10T07:05:56;100325.69;;;15.17;72.81
11672;BME280;5892;43.412;24.612;2023-04-10T07:08:23;100331.91;;;15.26;72.56
11672;BME280;5892;43.412;24.612;2023-04-10T07:10:51;100319.25;;;15.58;69.84
11672;BME280;5892;43.412;24.612;2023-04-10T07:13:18;100317.66;;;16.05;67.85
11672;BME280;5892;43.412;24.612;2023-04-10T07:15:45;100337.28;;;16.28;65.64
11672;BME280;5892;43.412;24.612;2023-04-10T07:18:12;100291.28;;;15.84;64.49
11672;BME280;5892;43.412;24.612;2023-04-10T07:20:39;100341.13;;;16.12;65.32
11672;BME280;5892;43.412;24.612;2023-04-10T07:23:06;100331.84;;;16.44;64.98
11672;BME280;5892;43.412;24.612;2023-04-10T07:25:33;100334.03;;;16.50;64.42
11672;BME280;5892;43.412;24.612;2023-04-10T07:28:01;100314.44;;;16.43;65.98
11672;BME280;5892;43.412;24.612;2023-04-10T07:30:28;100327.59;;;16.46;66.69
11672;BME280;5892;43.412;24.612;2023-04-10T07:32:55;100320.03;;;16.31;65.85
11672;BME280;5892;43.412;24.612;2023-04-10T07:35:22;100326.78;;;16.46;65.46
11672;BME280;5892;43.412;24.612;2023-04-10T07:37:49;100320.84;;;16.32;65.74
11672;BME280;5892;43.412;24.612;2023-04-10T07:40:19;100276.75;;;15.99;66.36
11672;BME280;5892;43.412;24.612;2023-04-10T07:42:54;100322.13;;;16.22;67.43
11672;BME280;5892;43.412;24.612;2023-04-10T07:45:23;100319.94;;;16.03;66.24
11672;BME280;5892;43.412;24.612;2023-04-10T07:47:57;100246.22;;;14.77;68.70
11672;BME280;5892;43.412;24.612;2023-04-10T07:50:24;100285.09;;;15.30;66.15
11672;BME280;5892;43.412;24.612;2023-04-10T07:52:51;100322.34;;;15.81;64.73
11672;BME280;5892;43.412;24.612;2023-04-10T07:55:18;100318.63;;;16.37;63.97
11672;BME280;5892;43.412;24.612;2023-04-10T07:57:47;100329.00;;;16.40;63.27
11672;BME280;5892;43.412;24.612;2023-04-10T08:00:17;100298.16;;;16.14;62.64
11672;BME280;5892;43.412;24.612;2023-04-10T08:02:45;100294.25;;;16.95;60.59
11672;BME280;5892;43.412;24.612;2023-04-10T08:05:12;100314.41;;;17.23;59.01
11672;BME280;5892;43.412;24.612;2023-04-10T08:07:39;100307.69;;;17.24;58.84
11672;BME280;5892;43.412;24.612;2023-04-10T08:10:06;100312.09;;;17.25;59.95
11672;BME280;5892;43.412;24.612;2023-04-10T08:12:33;100223.06;;;16.80;57.52
11672;BME280;5892;43.412;24.612;2023-04-10T08:15:00;100303.84;;;17.72;56.66
11672;BME280;5892;43.412;24.612;2023-04-10T08:17:27;100309.91;;;17.78;57.12
11672;BME280;5892;43.412;24.612;2023-04-10T08:19:55;100309.47;;;17.60;57.77
11672;BME280;5892;43.412;24.612;2023-04-10T08:22:22;100248.72;;;16.25;59.79
11672;BME280;5892;43.412;24.612;2023-04-10T08:24:49;100278.84;;;16.82;60.45
11672;BME280;5892;43.412;24.612;2023-04-10T08:27:16;100312.16;;;17.13;59.12
11672;BME280;5892;43.412;24.612;2023-04-10T08:29:43;100303.97;;;16.89;60.77
11672;BME280;5892;43.412;24.612;2023-04-10T08:32:09;100294.72;;;16.69;60.26
11672;BME280;5892;43.412;24.612;2023-04-10T08:34:36;100301.59;;;16.75;60.22
11672;BME280;5892;43.412;24.612;2023-04-10T08:37:06;100301.84;;;16.98;59.67
11672;BME280;5892;43.412;24.612;2023-04-10T08:39:34;100298.09;;;17.06;59.99
11672;BME280;5892;43.412;24.612;2023-04-10T08:42:01;100224.84;;;16.88;58.60
11672;BME280;5892;43.412;24.612;2023-04-10T08:44:28;100281.13;;;17.67;56.89
11672;BME280;5892;43.412;24.612;2023-04-10T08:46:58;100272.34;;;17.81;56.93
11672;BME280;5892;43.412;24.612;2023-04-10T08:49:31;100295.03;;;18.37;56.81
11672;BME280;5892;43.412;24.612;2023-04-10T08:52:07;100305.63;;;16.78;60.54
11672;BME280;5892;43.412;24.612;2023-04-10T08:54:37;100251.31;;;15.81;62.80
11672;BME280;5892;43.412;24.612;2023-04-10T08:57:05;100210.97;;;16.44;61.57
11672;BME280;5892;43.412;24.612;2023-04-10T08:59:33;100220.38;;;16.56;61.25
11672;BME280;5892;43.412;24.612;2023-04-10T09:02:00;100298.25;;;17.25;61.37
11672;BME280;5892;43.412;24.612;2023-04-10T09:04:27;100272.09;;;17.70;60.62
11672;BME280;5892;43.412;24.612;2023-04-10T09:06:53;100269.13;;;17.31;60.08
11672;BME280;5892;43.412;24.612;2023-04-10T09:09:22;100266.56;;;16.95;60.96
11672;BME280;5892;43.412;24.612;2023-04-10T09:11:56;100258.97;;;16.12;63.90
11672;BME280;5892;43.412;24.612;2023-04-10T09:14:26;100172.50;;;15.47;64.71
11672;BME280;5892;43.412;24.612;2023-04-10T09:17:10;100258.22;;;15.99;64.83
11672;BME280;5892;43.412;24.612;2023-04-10T09:19:37;100261.69;;;15.60;67.40
11672;BME280;5892;43.412;24.612;2023-04-10T09:22:04;100246.84;;;15.52;64.16
11672;BME280;5892;43.412;24.612;2023-04-10T09:24:37;100245.13;;;16.24;63.85
11672;BME280;5892;43.412;24.612;2023-04-10T09:27:04;100271.31;;;16.27;62.93
11672;BME280;5892;43.412;24.612;2023-04-10T09:29:42;100187.00;;;16.21;61.21
11672;BME280;5892;43.412;24.612;2023-04-10T09:32:10;100225.63;;;16.73;59.04
11672;BME280;5892;43.412;24.612;2023-04-10T09:34:58;100230.38;;;16.88;57.86
11672;BME280;5892;43.412;24.612;2023-04-10T09:37:30;100219.25;;;16.44;58.43
11672;BME280;5892;43.412;24.612;2023-04-10T09:39:59;100228.88;;;15.71;59.14
11672;BME280;5892;43.412;24.612;2023-04-10T09:42:30;100230.28;;;15.64;56.92
11672;BME280;5892;43.412;24.612;2023-04-10T09:44:58;100201.56;;;15.08;58.62
11672;BME280;5892;43.412;24.612;2023-04-10T09:47:26;100237.16;;;15.46;58.94
11672;BME280;5892;43.412;24.612;2023-04-10T09:49:55;100235.22;;;16.23;56.40
11672;BME280;5892;43.412;24.612;2023-04-10T09:52:24;100122.16;;;15.78;55.40
11672;BME280;5892;43.412;24.612;2023-04-10T09:54:52;100150.38;;;15.84;53.98
11672;BME280;5892;43.412;24.612;2023-04-10T09:57:21;100202.97;;;16.27;53.87
11672;BME280;5892;43.412;24.612;2023-04-10T09:59:49;100229.53;;;16.04;54.10
11672;BME280;5892;43.412;24.612;2023-04-10T10:02:17;100149.50;;;15.43;53.01
11672;BME280;5892;43.412;24.612;2023-04-10T10:04:45;100195.72;;;15.83;51.78
11672;BME280;5892;43.412;24.612;2023-04-10T10:07:14;100190.34;;;15.38;52.09
11672;BME280;5892;43.412;24.612;2023-04-10T10:09:42;100194.78;;;15.06;53.11
11672;BME280;5892;43.412;24.612;2023-04-10T10:12:10;100208.38;;;15.23;51.35
11672;BME280;5892;43.412;24.612;2023-04-10T10:14:45;100190.44;;;15.29;50.69
11672;BME280;5892;43.412;24.612;2023-04-10T10:17:17;100113.72;;;14.74;51.81
11672;BME280;5892;43.412;24.612;2023-04-10T10:19:51;100194.78;;;15.18;51.55
11672;BME280;5892;43.412;24.612;2023-04-10T10:22:21;100209.19;;;15.36;50.50
11672;BME280;5892;43.412;24.612;2023-04-10T10:24:51;100191.56;;;15.04;51.87
11672;BME280;5892;43.412;24.612;2023-04-10T10:27:21;100191.34;;;15.09;51.56
11672;BME280;5892;43.412;24.612;2023-04-10T10:29:55;100183.75;;;15.18;50.91
11672;BME280;5892;43.412;24.612;2023-04-10T10:32:25;100192.38;;;15.41;51.13
11672;BME280;5892;43.412;24.612;2023-04-10T10:34:53;100081.72;;;14.61;49.91
11672;BME280;5892;43.412;24.612;2023-04-10T10:37:20;100149.63;;;15.22;49.86
11672;BME280;5892;43.412;24.612;2023-04-10T10:39:55;100179.63;;;15.36;49.31
11672;BME280;5892;43.412;24.612;2023-04-10T10:42:29;100144.97;;;15.39;50.21
11672;BME280;5892;43.412;24.612;2023-04-10T10:45:08;100167.66;;;15.56;49.38
11672;BME280;5892;43.412;24.612;2023-04-10T10:47:39;100156.78;;;15.88;48.36
11672;BME280;5892;43.412;24.612;2023-04-10T10:50:08;100156.53;;;16.33;48.06
11672;BME280;5892;43.412;24.612;2023-04-10T10:52:39;100140.41;;;16.50;48.14
11672;BME280;5892;43.412;24.612;2023-04-10T10:55:31;100153.59;;;16.41;46.75
11672;BME280;5892;43.412;24.612;2023-04-10T10:58:01;100144.06;;;15.71;46.43
11672;BME280;5892;43.412;24.612;2023-04-10T11:01:05;100136.31;;;15.89;46.90
11672;BME280;5892;43.412;24.612;2023-04-10T11:03:33;100118.69;;;16.21;46.14
11672;BME280;5892;43.412;24.612;2023-04-10T11:06:01;100131.56;;;16.73;45.36
11672;BME280;5892;43.412;24.612;2023-04-10T11:08:36;100122.91;;;17.06;44.69
11672;BME280;5892;43.412;24.612;2023-04-10T11:11:09;100134.13;;;16.97;42.65
11672;BME280;5892;43.412;24.612;2023-04-10T11:13:41;100101.19;;;16.61;42.83
11672;BME280;5892;43.412;24.612;2023-04-10T11:16:09;100139.13;;;16.60;45.63
11672;BME280;5892;43.412;24.612;2023-04-10T11:19:00;100116.75;;;16.09;47.59
11672;BME280;5892;43.412;24.612;2023-04-10T11:21:27;100123.34;;;16.05;48.35
11672;BME280;5892;43.412;24.612;2023-04-10T11:24:03;100127.72;;;16.06;46.89
11672;BME280;5892;43.412;24.612;2023-04-10T11:26:39;100114.47;;;15.72;47.53
11672;BME280;5892;43.412;24.612;2023-04-10T11:29:33;100118.81;;;15.85;48.50
11672;BME280;5892;43.412;24.612;2023-04-10T11:32:03;100111.44;;;15.89;45.46
11672;BME280;5892;43.412;24.612;2023-04-10T11:34:30;100069.63;;;15.90;45.52
11672;BME280;5892;43.412;24.612;2023-04-10T11:36:59;100136.31;;;16.17;43.89
11672;BME280;5892;43.412;24.612;2023-04-10T11:39:29;100111.53;;;16.20;44.01
11672;BME280;5892;43.412;24.612;2023-04-10T11:41:56;100098.00;;;16.03;43.29
11672;BME280;5892;43.412;24.612;2023-04-10T11:44:29;100056.81;;;15.98;42.88
11672;BME280;5892;43.412;24.612;2023-04-10T11:46:57;100088.63;;;16.79;42.43
11672;BME280;5892;43.412;24.612;2023-04-10T11:49:28;100086.00;;;17.02;42.36
11672;BME280;5892;43.412;24.612;2023-04-10T11:51:56;100018.03;;;15.94;42.72
11672;BME280;5892;43.412;24.612;2023-04-10T11:54:24;100082.91;;;16.28;43.44
11672;BME280;5892;43.412;24.612;2023-04-10T11:56:57;100073.75;;;16.56;43.87
11672;BME280;5892;43.412;24.612;2023-04-10T11:59:24;100014.97;;;16.27;43.42
11672;BME280;5892;43.412;24.612;2023-04-10T12:01:52;100064.16;;;16.65;42.55
11672;BME280;5892;43.412;24.612;2023-04-10T12:04:21;100062.13;;;16.78;40.94
11672;BME280;5892;43.412;24.612;2023-04-10T12:06:59;100063.50;;;17.03;40.08
11672;BME280;5892;43.412;24.612;2023-04-10T12:09:26;100059.50;;;17.35;40.31
11672;BME280;5892;43.412;24.612;2023-04-10T12:11:55;99968.13;;;16.34;40.74
11672;BME280;5892;43.412;24.612;2023-04-10T12:14:29;100047.78;;;16.44;44.95
11672;BME280;5892;43.412;24.612;2023-04-10T12:16:56;100052.34;;;16.52;46.39
11672;BME280;5892;43.412;24.612;2023-04-10T12:19:23;100063.94;;;15.99;47.81
11672;BME280;5892;43.412;24.612;2023-04-10T12:21:52;100024.06;;;15.56;48.06
11672;BME280;5892;43.412;24.612;2023-04-10T12:24:39;100051.22;;;15.42;47.13
11672;BME280;5892;43.412;24.612;2023-04-10T12:27:07;100019.44;;;15.08;47.13
11672;BME280;5892;43.412;24.612;2023-04-10T12:29:34;100048.53;;;14.81;48.76
11672;BME280;5892;43.412;24.612;2023-04-10T12:32:07;99991.50;;;14.98;48.71
11672;BME280;5892;43.412;24.612;2023-04-10T12:34:34;100058.41;;;15.19;47.96
11672;BME280;5892;43.412;24.612;2023-04-10T12:37:03;100046.09;;;15.16;46.62
11672;BME280;5892;43.412;24.612;2023-04-10T12:39:30;100029.50;;;15.28;47.15
11672;BME280;5892;43.412;24.612;2023-04-10T12:42:10;99954.97;;;14.89;46.27
11672;BME280;5892;43.412;24.612;2023-04-10T12:44:49;99989.69;;;14.90;44.84
11672;BME280;5892;43.412;24.612;2023-04-10T12:47:16;99975.31;;;14.84;45.74
11672;BME280;5892;43.412;24.612;2023-04-10T12:50:07;99999.06;;;15.13;46.46
11672;BME280;5892;43.412;24.612;2023-04-10T12:52:37;100014.97;;;15.56;47.03
11672;BME280;5892;43.412;24.612;2023-04-10T12:55:12;99943.06;;;15.52;45.93
11672;BME280;5892;43.412;24.612;2023-04-10T12:57:43;100018.22;;;16.01;45.76
11672;BME280;5892;43.412;24.612;2023-04-10T13:00:21;99995.88;;;16.22;43.56
11672;BME280;5892;43.412;24.612;2023-04-10T13:02:48;100003.41;;;16.69;43.01
11672;BME280;5892;43.412;24.612;2023-04-10T13:05:15;100011.25;;;16.67;43.15
11672;BME280;5892;43.412;24.612;2023-04-10T13:07:44;99940.94;;;16.36;44.38
11672;BME280;5892;43.412;24.612;2023-04-10T13:10:10;99997.47;;;16.86;44.17